sensor_id;sensor_type;location;lat;lon;timestamp;pressure;altitude;pressure_sealevel;temperature;humidity
54465;BME280;40374;49.480;20.016;2023-03-01T00:00:05;95944.09;;;-2.25;100.00
54465;BME280;40374;49.480;20.016;2023-03-01T00:02:57;95934.69;;;-2.42;100.00
54465;BME280;40374;49.480;20.016;2023-03-01T00:05:24;95946.56;;;-2.47;100.00
54465;BME280;40374;49.480;20.016;2023-03-01T00:07:53;95940.34;;;-2.54;100.00
54465;BME280;40374;49.480;20.016;2023-03-01T00:10:20;95946.69;;;-2.71;100.00
54465;BME280;40374;49.480;20.016;2023-03-01T00:12:48;95941.25;;;-2.70;100.00
54465;BME280;40374;49.480;20.016;2023-03-01T00:15:15;95942.34;;;-2.56;100.00
54465;BME280;40374;49.480;20.016;2023-03-01T00:17:42;95939.81;;;-2.49;100.00
54465;BME280;40374;49.480;20.016;2023-03-01T00:20:10;95954.25;;;-2.37;100.00
54465;BME280;40374;49.480;20.016;2023-03-01T00:22:38;95958.66;;;-2.37;100.00
54465;BME280;40374;49.480;20.016;2023-03-01T00:25:05;95949.38;;;-2.25;100.00
54465;BME280;40374;49.480;20.016;2023-03-01T00:27:33;95953.00;;;-2.26;100.00
54465;BME280;40374;49.480;20.016;2023-03-01T00:30:00;95948.56;;;-2.26;100.00
54465;BME280;40374;49.480;20.016;2023-03-01T00:32:28;95947.03;;;-2.43;100.00
54465;BME280;40374;49.480;20.016;2023-03-01T00:34:56;95946.47;;;-2.61;100.00
54465;BME280;40374;49.480;20.016;2023-03-01T00:37:24;95953.31;;;-2.52;100.00
54465;BME280;40374;49.480;20.016;2023-03-01T00:39:51;95951.91;;;-2.63;100.00
54465;BME280;40374;49.480;20.016;2023-03-01T00:42:18;95945.66;;;-2.62;100.00
54465;BME280;40374;49.480;20.016;2023-03-01T00:44:47;95945.09;;;-2.80;100.00
54465;BME280;40374;49.480;20.016;2023-03-01T00:47:14;95940.41;;;-2.62;100.00
54465;BME280;40374;49.480;20.016;2023-03-01T00:49:42;95938.69;;;-2.55;100.00
54465;BME280;40374;49.480;20.016;2023-03-01T00:52:09;95928.84;;;-2.61;100.00
54465;BME280;40374;49.480;20.016;2023-03-01T00:54:37;95933.09;;;-2.52;100.00
54465;BME280;40374;49.480;20.016;2023-03-01T00:57:05;95931.50;;;-2.61;100.00
54465;BME280;40374;49.480;20.016;2023-03-01T00:59:32;95941.56;;;-2.64;100.00
54465;BME280;40374;49.480;20.016;2023-03-01T01:02:00;95931.56;;;-2.77;100.00
54465;BME280;40374;49.480;20.016;2023-03-01T01:04:27;95941.41;;;-2.71;100.00
54465;BME280;40374;49.480;20.016;2023-03-01T01:06:54;95936.50;;;-2.74;100.00
54465;BME280;40374;49.480;20.016;2023-03-01T01:09:22;95938.19;;;-2.81;100.00
54465;BME280;40374;49.480;20.016;2023-03-01T01:11:50;95941.81;;;-2.82;100.00
54465;BME280;40374;49.480;20.016;2023-03-01T01:14:19;95937.53;;;-2.83;100.00
54465;BME280;40374;49.480;20.016;2023-03-01T01:16:47;95929.88;;;-3.01;100.00
54465;BME280;40374;49.480;20.016;2023-03-01T01:19:15;95941.59;;;-3.04;100.00
54465;BME280;40374;49.480;20.016;2023-03-01T01:21:43;95942.03;;;-3.00;100.00
54465;BME280;40374;49.480;20.016;2023-03-01T01:24:11;95943.63;;;-2.83;100.00
54465;BME280;40374;49.480;20.016;2023-03-01T01:26:39;95943.50;;;-2.90;100.00
54465;BME280;40374;49.480;20.016;2023-03-01T01:29:07;95925.13;;;-2.98;100.00
54465;BME280;40374;49.480;20.016;2023-03-01T01:31:37;95914.19;;;-2.87;100.00
54465;BME280;40374;49.480;20.016;2023-03-01T01:34:08;95923.03;;;-2.79;100.00
54465;BME280;40374;49.480;20.016;2023-03-01T01:36:37;95925.41;;;-2.93;100.00
54465;BME280;40374;49.480;20.016;2023-03-01T01:39:04;95938.25;;;-2.90;100.00
54465;BME280;40374;49.480;20.016;2023-03-01T01:41:31;95944.19;;;-2.96;100.00
54465;BME280;40374;49.480;20.016;2023-03-01T01:46:45;95935.38;;;-2.80;100.00
54465;BME280;40374;49.480;20.016;2023-03-01T01:49:19;95932.97;;;-2.90;100.00
54465;BME280;40374;49.480;20.016;2023-03-01T01:52:00;95932.66;;;-2.95;100.00
54465;BME280;40374;49.480;20.016;2023-03-01T01:54:37;95933.31;;;-2.93;100.00
54465;BME280;40374;49.480;20.016;2023-03-01T01:57:10;95922.53;;;-3.06;100.00
54465;BME280;40374;49.480;20.016;2023-03-01T01:59:43;95931.09;;;-3.12;100.00
54465;BME280;40374;49.480;20.016;2023-03-01T02:02:12;95930.00;;;-3.34;100.00
54465;BME280;40374;49.480;20.016;2023-03-01T02:04:41;95923.91;;;-3.27;100.00
54465;BME280;40374;49.480;20.016;2023-03-01T02:07:22;95927.78;;;-3.06;100.00
54465;BME280;40374;49.480;20.016;2023-03-01T02:09:52;95937.00;;;-3.10;100.00
54465;BME280;40374;49.480;20.016;2023-03-01T02:12:23;95935.06;;;-3.16;100.00
54465;BME280;40374;49.480;20.016;2023-03-01T02:14:51;95940.53;;;-3.34;100.00
54465;BME280;40374;49.480;20.016;2023-03-01T02:17:18;95928.03;;;-3.40;100.00
54465;BME280;40374;49.480;20.016;2023-03-01T02:20:04;95930.50;;;-3.31;100.00
54465;BME280;40374;49.480;20.016;2023-03-01T02:22:37;95935.28;;;-3.42;100.00
54465;BME280;40374;49.480;20.016;2023-03-01T02:30:49;95935.81;;;-3.55;100.00
54465;BME280;40374;49.480;20.016;2023-03-01T02:33:37;95916.59;;;-3.56;100.00
54465;BME280;40374;49.480;20.016;2023-03-01T02:36:09;95910.16;;;-3.53;100.00
54465;BME280;40374;49.480;20.016;2023-03-01T02:38:40;95933.84;;;-3.61;100.00
54465;BME280;40374;49.480;20.016;2023-03-01T02:41:08;95916.75;;;-3.65;100.00
54465;BME280;40374;49.480;20.016;2023-03-01T02:43:38;95903.97;;;-3.69;100.00
54465;BME280;40374;49.480;20.016;2023-03-01T02:46:12;95896.03;;;-3.52;100.00
54465;BME280;40374;49.480;20.016;2023-03-01T02:48:46;95906.22;;;-3.49;100.00
54465;BME280;40374;49.480;20.016;2023-03-01T02:54:15;95914.75;;;-3.47;100.00
54465;BME280;40374;49.480;20.016;2023-03-01T02:56:45;95911.66;;;-3.51;100.00
54465;BME280;40374;49.480;20.016;2023-03-01T02:59:21;95911.66;;;-3.51;100.00
54465;BME280;40374;49.480;20.016;2023-03-01T03:01:50;95923.81;;;-3.58;100.00
54465;BME280;40374;49.480;20.016;2023-03-01T03:04:18;95911.16;;;-3.46;100.00
54465;BME280;40374;49.480;20.016;2023-03-01T03:06:50;95914.75;;;-3.47;100.00
54465;BME280;40374;49.480;20.016;2023-03-01T03:09:18;95915.78;;;-3.56;100.00
54465;BME280;40374;49.480;20.016;2023-03-01T03:11:46;95905.25;;;-3.56;100.00
54465;BME280;40374;49.480;20.016;2023-03-01T03:14:15;95904.59;;;-3.50;100.00
54465;BME280;40374;49.480;20.016;2023-03-01T03:16:48;95906.88;;;-3.55;100.00
54465;BME280;40374;49.480;20.016;2023-03-01T03:19:17;95893.44;;;-3.60;100.00
54465;BME280;40374;49.480;20.016;2023-03-01T03:21:45;95890.84;;;-3.77;100.00
54465;BME280;40374;49.480;20.016;2023-03-01T03:24:13;95887.25;;;-3.92;100.00
54465;BME280;40374;49.480;20.016;2023-03-01T03:26:40;95903.03;;;-3.92;100.00
54465;BME280;40374;49.480;20.016;2023-03-01T03:29:07;95899.25;;;-4.06;100.00
54465;BME280;40374;49.480;20.016;2023-03-01T03:31:35;95905.50;;;-3.99;100.00
54465;BME280;40374;49.480;20.016;2023-03-01T03:34:02;95899.75;;;-4.02;100.00
54465;BME280;40374;49.480;20.016;2023-03-01T03:36:30;95892.69;;;-4.02;100.00
54465;BME280;40374;49.480;20.016;2023-03-01T03:38:57;95900.91;;;-4.05;100.00
54465;BME280;40374;49.480;20.016;2023-03-01T03:41:25;95892.03;;;-4.04;100.00
54465;BME280;40374;49.480;20.016;2023-03-01T03:43:52;95894.66;;;-4.12;100.00
54465;BME280;40374;49.480;20.016;2023-03-01T03:46:19;95898.28;;;-4.13;100.00
54465;BME280;40374;49.480;20.016;2023-03-01T03:48:47;95903.69;;;-4.15;100.00
54465;BME280;40374;49.480;20.016;2023-03-01T03:51:16;95892.53;;;-4.09;100.00
54465;BME280;40374;49.480;20.016;2023-03-01T03:53:44;95891.72;;;-4.09;100.00
54465;BME280;40374;49.480;20.016;2023-03-01T03:56:12;95891.22;;;-4.13;100.00
54465;BME280;40374;49.480;20.016;2023-03-01T03:58:40;95881.72;;;-4.30;100.00
54465;BME280;40374;49.480;20.016;2023-03-01T04:01:07;95881.38;;;-4.27;100.00
54465;BME280;40374;49.480;20.016;2023-03-01T04:03:35;95888.09;;;-4.33;100.00
54465;BME280;40374;49.480;20.016;2023-03-01T04:06:02;95883.50;;;-4.31;100.00
54465;BME280;40374;49.480;20.016;2023-03-01T04:08:31;95878.75;;;-4.35;100.00
54465;BME280;40374;49.480;20.016;2023-03-01T04:11:03;95879.41;;;-4.17;100.00
54465;BME280;40374;49.480;20.016;2023-03-01T04:13:53;95867.59;;;-4.21;100.00
54465;BME280;40374;49.480;20.016;2023-03-01T04:16:21;95884.66;;;-4.17;100.00
54465;BME280;40374;49.480;20.016;2023-03-01T04:18:49;95875.97;;;-4.17;100.00
54465;BME280;40374;49.480;20.016;2023-03-01T04:21:16;95861.03;;;-4.25;100.00
54465;BME280;40374;49.480;20.016;2023-03-01T04:23:43;95854.59;;;-4.22;100.00
54465;BME280;40374;49.480;20.016;2023-03-01T04:26:11;95861.38;;;-4.28;100.00
54465;BME280;40374;49.480;20.016;2023-03-01T04:28:41;95865.31;;;-4.16;100.00
54465;BME280;40374;49.480;20.016;2023-03-01T04:31:14;95847.06;;;-4.25;100.00
54465;BME280;40374;49.480;20.016;2023-03-01T04:33:46;95881.38;;;-4.27;100.00
54465;BME280;40374;49.480;20.016;2023-03-01T04:36:16;95861.84;;;-4.24;100.00
54465;BME280;40374;49.480;20.016;2023-03-01T04:38:45;95865.97;;;-4.30;100.00
54465;BME280;40374;49.480;20.016;2023-03-01T04:41:17;95859.72;;;-4.37;100.00
54465;BME280;40374;49.480;20.016;2023-03-01T04:43:45;95857.09;;;-4.62;100.00
54465;BME280;40374;49.480;20.016;2023-03-01T04:46:15;95850.84;;;-4.77;100.00
54465;BME280;40374;49.480;20.016;2023-03-01T04:48:45;95862.31;;;-4.78;100.00
54465;BME280;40374;49.480;20.016;2023-03-01T04:51:14;95870.84;;;-4.76;100.00
54465;BME280;40374;49.480;20.016;2023-03-01T04:53:43;95870.19;;;-4.86;100.00
54465;BME280;40374;49.480;20.016;2023-03-01T04:56:11;95862.47;;;-4.88;100.00
54465;BME280;40374;49.480;20.016;2023-03-01T04:58:41;95876.28;;;-4.70;100.00
54465;BME280;40374;49.480;20.016;2023-03-01T05:01:14;95882.66;;;-4.56;100.00
54465;BME280;40374;49.480;20.016;2023-03-01T05:03:43;95877.72;;;-4.75;100.00
54465;BME280;40374;49.480;20.016;2023-03-01T05:06:12;95883.81;;;-4.66;100.00
54465;BME280;40374;49.480;20.016;2023-03-01T05:08:40;95882.31;;;-4.85;100.00
54465;BME280;40374;49.480;20.016;2023-03-01T05:11:08;95891.47;;;-4.90;100.00
54465;BME280;40374;49.480;20.016;2023-03-01T05:13:37;95885.91;;;-4.95;100.00
54465;BME280;40374;49.480;20.016;2023-03-01T05:16:06;95885.13;;;-4.71;100.00
54465;BME280;40374;49.480;20.016;2023-03-01T05:18:33;95884.00;;;-4.68;100.00
54465;BME280;40374;49.480;20.016;2023-03-01T05:21:04;95876.44;;;-4.63;100.00
54465;BME280;40374;49.480;20.016;2023-03-01T05:23:33;95866.56;;;-4.85;100.00
54465;BME280;40374;49.480;20.016;2023-03-01T05:26:01;95876.75;;;-4.74;100.00
54465;BME280;40374;49.480;20.016;2023-03-01T05:28:32;95874.28;;;-4.84;100.00
54465;BME280;40374;49.480;20.016;2023-03-01T05:31:00;95881.03;;;-4.65;100.00
54465;BME280;40374;49.480;20.016;2023-03-01T05:33:28;95886.63;;;-4.43;100.00
54465;BME280;40374;49.480;20.016;2023-03-01T05:35:59;95886.31;;;-4.40;100.00
54465;BME280;40374;49.480;20.016;2023-03-01T05:38:27;95886.94;;;-4.63;100.00
54465;BME280;40374;49.480;20.016;2023-03-01T05:40:55;95889.22;;;-4.76;100.00
54465;BME280;40374;49.480;20.016;2023-03-01T05:43:22;95878.72;;;-4.76;100.00
54465;BME280;40374;49.480;20.016;2023-03-01T05:45:50;95891.22;;;-4.62;100.00
54465;BME280;40374;49.480;20.016;2023-03-01T05:48:17;95894.50;;;-4.68;100.00
54465;BME280;40374;49.480;20.016;2023-03-01T05:50:46;95893.34;;;-4.65;100.00
54465;BME280;40374;49.480;20.016;2023-03-01T05:53:19;95894.50;;;-4.35;100.00
54465;BME280;40374;49.480;20.016;2023-03-01T05:55:50;95891.72;;;-4.34;100.00
54465;BME280;40374;49.480;20.016;2023-03-01T05:58:19;95889.09;;;-4.25;100.00
54465;BME280;40374;49.480;20.016;2023-03-01T06:00:48;95884.81;;;-4.10;100.00
54465;BME280;40374;49.480;20.016;2023-03-01T06:03:16;95889.91;;;-4.25;100.00
54465;BME280;40374;49.480;20.016;2023-03-01T06:05:45;95885.81;;;-4.44;100.00
54465;BME280;40374;49.480;20.016;2023-03-01T06:08:12;95885.66;;;-4.34;100.00
54465;BME280;40374;49.480;20.016;2023-03-01T06:10:40;95885.97;;;-4.21;100.00
54465;BME280;40374;49.480;20.016;2023-03-01T06:13:08;95890.56;;;-4.15;100.00
54465;BME280;40374;49.480;20.016;2023-03-01T06:15:35;95903.34;;;-4.03;100.00
54465;BME280;40374;49.480;20.016;2023-03-01T06:18:03;95897.59;;;-3.91;100.00
54465;BME280;40374;49.480;20.016;2023-03-01T06:20:30;95899.38;;;-3.83;100.00
54465;BME280;40374;49.480;20.016;2023-03-01T06:22:58;95906.63;;;-3.85;100.00
54465;BME280;40374;49.480;20.016;2023-03-01T06:25:27;95905.56;;;-3.51;100.00
54465;BME280;40374;49.480;20.016;2023-03-01T06:27:54;95903.88;;;-3.36;100.00
54465;BME280;40374;49.480;20.016;2023-03-01T06:30:24;95909.16;;;-3.36;100.00
54465;BME280;40374;49.480;20.016;2023-03-01T06:32:53;95913.50;;;-3.12;100.00
54465;BME280;40374;49.480;20.016;2023-03-01T06:35:28;95910.47;;;-3.00;100.00
54465;BME280;40374;49.480;20.016;2023-03-01T06:37:58;95898.47;;;-3.03;100.00
54465;BME280;40374;49.480;20.016;2023-03-01T06:40:26;95895.66;;;-3.33;100.00
54465;BME280;40374;49.480;20.016;2023-03-01T06:42:56;95898.56;;;-3.28;100.00
54465;BME280;40374;49.480;20.016;2023-03-01T06:45:24;95900.19;;;-3.18;100.00
54465;BME280;40374;49.480;20.016;2023-03-01T06:47:51;95888.91;;;-3.35;100.00
54465;BME280;40374;49.480;20.016;2023-03-01T06:50:19;95898.28;;;-3.33;100.00
54465;BME280;40374;49.480;20.016;2023-03-01T06:52:46;95893.25;;;-3.11;100.00
54465;BME280;40374;49.480;20.016;2023-03-01T06:55:15;95892.72;;;-2.75;100.00
54465;BME280;40374;49.480;20.016;2023-03-01T06:57:42;95886.97;;;-2.48;100.00
54465;BME280;40374;49.480;20.016;2023-03-01T07:00:10;95887.03;;;-2.10;100.00
54465;BME280;40374;49.480;20.016;2023-03-01T07:02:37;95885.06;;;-1.78;100.00
54465;BME280;40374;49.480;20.016;2023-03-01T07:05:06;95866.25;;;-1.45;100.00
54465;BME280;40374;49.480;20.016;2023-03-01T07:07:34;95868.50;;;-1.12;100.00
54465;BME280;40374;49.480;20.016;2023-03-01T07:10:02;95881.50;;;-0.96;100.00
54465;BME280;40374;49.480;20.016;2023-03-01T07:12:29;95879.00;;;-0.83;100.00
54465;BME280;40374;49.480;20.016;2023-03-01T07:14:57;95877.72;;;-0.72;100.00
54465;BME280;40374;49.480;20.016;2023-03-01T07:17:24;95873.03;;;-0.33;100.00
54465;BME280;40374;49.480;20.016;2023-03-01T07:19:51;95878.00;;;-0.24;100.00
54465;BME280;40374;49.480;20.016;2023-03-01T07:22:21;95876.22;;;0.05;100.00
54465;BME280;40374;49.480;20.016;2023-03-01T07:24:49;95877.28;;;-0.11;100.00
54465;BME280;40374;49.480;20.016;2023-03-01T07:27:16;95871.25;;;-0.05;100.00
54465;BME280;40374;49.480;20.016;2023-03-01T07:29:44;95862.69;;;-0.07;100.00
54465;BME280;40374;49.480;20.016;2023-03-01T07:32:11;95867.22;;;-0.01;100.00
54465;BME280;40374;49.480;20.016;2023-03-01T07:34:39;95871.59;;;0.14;100.00
54465;BME280;40374;49.480;20.016;2023-03-01T07:37:07;95857.97;;;0.45;97.65
54465;BME280;40374;49.480;20.016;2023-03-01T07:39:34;95871.66;;;0.49;94.12
54465;BME280;40374;49.480;20.016;2023-03-01T07:42:01;95864.91;;;0.81;100.00
54465;BME280;40374;49.480;20.016;2023-03-01T07:44:29;95861.06;;;0.90;82.17
54465;BME280;40374;49.480;20.016;2023-03-01T07:46:56;95853.25;;;1.24;95.24
54465;BME280;40374;49.480;20.016;2023-03-01T07:49:25;95844.81;;;1.81;93.21
54465;BME280;40374;49.480;20.016;2023-03-01T07:51:57;95855.81;;;2.58;77.45
54465;BME280;40374;49.480;20.016;2023-03-01T07:54:27;95853.25;;;2.97;84.11
54465;BME280;40374;49.480;20.016;2023-03-01T07:56:56;95853.44;;;3.47;78.53
54465;BME280;40374;49.480;20.016;2023-03-01T07:59:24;95847.00;;;3.93;66.13
54465;BME280;40374;49.480;20.016;2023-03-01T08:01:56;95848.84;;;4.18;62.78
54465;BME280;40374;49.480;20.016;2023-03-01T08:04:25;95832.00;;;4.67;61.30
54465;BME280;40374;49.480;20.016;2023-03-01T08:06:54;95819.97;;;5.32;60.47
54465;BME280;40374;49.480;20.016;2023-03-01T08:09:22;95823.53;;;5.86;60.25
54465;BME280;40374;49.480;20.016;2023-03-01T08:11:49;95819.09;;;6.46;56.89
54465;BME280;40374;49.480;20.016;2023-03-01T08:14:17;95822.06;;;6.97;54.42
54465;BME280;40374;49.480;20.016;2023-03-01T08:16:44;95819.56;;;7.59;54.59
54465;BME280;40374;49.480;20.016;2023-03-01T08:19:12;95812.16;;;8.29;52.33
54465;BME280;40374;49.480;20.016;2023-03-01T08:21:39;95807.88;;;8.28;48.71
54465;BME280;40374;49.480;20.016;2023-03-01T08:24:07;95797.25;;;9.11;49.58
54465;BME280;40374;49.480;20.016;2023-03-01T08:26:37;95799.63;;;9.51;47.90
54465;BME280;40374;49.480;20.016;2023-03-01T08:29:04;95787.19;;;8.79;44.91
54465;BME280;40374;49.480;20.016;2023-03-01T08:31:38;95792.78;;;8.94;47.48
54465;BME280;40374;49.480;20.016;2023-03-01T08:34:09;95770.97;;;9.62;45.92
54465;BME280;40374;49.480;20.016;2023-03-01T08:36:42;95771.78;;;9.35;43.68
54465;BME280;40374;49.480;20.016;2023-03-01T08:39:13;95768.41;;;9.23;44.74
54465;BME280;40374;49.480;20.016;2023-03-01T08:41:40;95754.88;;;9.13;46.14
54465;BME280;40374;49.480;20.016;2023-03-01T08:44:10;95762.06;;;9.57;43.11
54465;BME280;40374;49.480;20.016;2023-03-01T08:46:40;95760.13;;;9.79;43.79
54465;BME280;40374;49.480;20.016;2023-03-01T08:49:11;95752.72;;;10.29;43.68
54465;BME280;40374;49.480;20.016;2023-03-01T08:51:39;95750.84;;;9.97;43.95
54465;BME280;40374;49.480;20.016;2023-03-01T08:54:11;95721.06;;;9.99;44.43
54465;BME280;40374;49.480;20.016;2023-03-01T08:56:39;95748.75;;;10.79;45.74
54465;BME280;40374;49.480;20.016;2023-03-01T08:59:07;95741.78;;;11.67;45.36
54465;BME280;40374;49.480;20.016;2023-03-01T09:01:34;95766.91;;;12.29;44.03
54465;BME280;40374;49.480;20.016;2023-03-01T09:04:02;95755.56;;;12.47;42.45
54465;BME280;40374;49.480;20.016;2023-03-01T09:06:31;95753.38;;;12.65;41.12
54465;BME280;40374;49.480;20.016;2023-03-01T09:09:00;95748.53;;;12.62;41.03
54465;BME280;40374;49.480;20.016;2023-03-01T09:11:28;95752.28;;;12.71;40.63
54465;BME280;40374;49.480;20.016;2023-03-01T09:13:55;95736.34;;;12.79;40.61
54465;BME280;40374;49.480;20.016;2023-03-01T09:16:23;95737.66;;;12.92;41.04
54465;BME280;40374;49.480;20.016;2023-03-01T09:18:52;95741.75;;;12.79;39.87
54465;BME280;40374;49.480;20.016;2023-03-01T09:21:22;95735.53;;;12.74;40.08
54465;BME280;40374;49.480;20.016;2023-03-01T09:24:07;95731.75;;;12.85;38.82
54465;BME280;40374;49.480;20.016;2023-03-01T09:26:38;95735.78;;;12.88;39.88
54465;BME280;40374;49.480;20.016;2023-03-01T09:29:06;95740.06;;;13.04;39.98
54465;BME280;40374;49.480;20.016;2023-03-01T09:31:36;95731.06;;;13.19;39.99
54465;BME280;40374;49.480;20.016;2023-03-01T09:34:04;95719.28;;;12.94;39.28
54465;BME280;40374;49.480;20.016;2023-03-01T09:36:32;95709.63;;;12.83;39.20
54465;BME280;40374;49.480;20.016;2023-03-01T09:39:01;95707.53;;;12.49;39.87
54465;BME280;40374;49.480;20.016;2023-03-01T09:44:26;95712.72;;;11.89;41.01
54465;BME280;40374;49.480;20.016;2023-03-01T09:46:56;95709.75;;;11.96;39.11
54465;BME280;40374;49.480;20.016;2023-03-01T09:49:30;95709.75;;;12.06;39.26
54465;BME280;40374;49.480;20.016;2023-03-01T09:54:49;95694.53;;;12.77;41.13
54465;BME280;40374;49.480;20.016;2023-03-01T09:57:41;95697.28;;;13.16;41.28
54465;BME280;40374;49.480;20.016;2023-03-01T10:05:52;95694.84;;;14.04;38.82
54465;BME280;40374;49.480;20.016;2023-03-01T10:11:13;95701.75;;;14.20;37.89
54465;BME280;40374;49.480;20.016;2023-03-01T10:16:51;95709.59;;;12.88;37.80
54465;BME280;40374;49.480;20.016;2023-03-01T10:19:30;95697.97;;;12.88;39.70
54465;BME280;40374;49.480;20.016;2023-03-01T10:22:05;95698.88;;;13.33;39.12
54465;BME280;40374;49.480;20.016;2023-03-01T10:24:38;95699.59;;;13.49;39.68
54465;BME280;40374;49.480;20.016;2023-03-01T10:27:11;95694.88;;;13.70;38.79
54465;BME280;40374;49.480;20.016;2023-03-01T10:29:59;95685.03;;;13.84;39.11
54465;BME280;40374;49.480;20.016;2023-03-01T10:32:30;95692.22;;;13.99;37.32
54465;BME280;40374;49.480;20.016;2023-03-01T10:34:58;95686.19;;;13.33;37.82
54465;BME280;40374;49.480;20.016;2023-03-01T10:37:26;95695.66;;;13.20;37.23
54465;BME280;40374;49.480;20.016;2023-03-01T10:39:56;95681.91;;;12.52;38.97
54465;BME280;40374;49.480;20.016;2023-03-01T10:42:33;95686.56;;;13.01;39.25
54465;BME280;40374;49.480;20.016;2023-03-01T10:50:47;95677.53;;;13.71;37.38
54465;BME280;40374;49.480;20.016;2023-03-01T10:53:22;95666.47;;;13.72;37.29
54465;BME280;40374;49.480;20.016;2023-03-01T10:58:33;95664.31;;;14.04;36.74
54465;BME280;40374;49.480;20.016;2023-03-01T11:01:05;95667.09;;;14.23;36.61
54465;BME280;40374;49.480;20.016;2023-03-01T11:03:38;95666.94;;;14.09;35.11
54465;BME280;40374;49.480;20.016;2023-03-01T11:14:03;95668.25;;;11.97;38.64
54465;BME280;40374;49.480;20.016;2023-03-01T11:17:15;95657.59;;;12.62;39.89
54465;BME280;40374;49.480;20.016;2023-03-01T11:20:00;95646.25;;;13.20;39.97
54465;BME280;40374;49.480;20.016;2023-03-01T11:22:30;95649.91;;;13.45;38.66
54465;BME280;40374;49.480;20.016;2023-03-01T11:25:00;95642.06;;;12.93;36.90
54465;BME280;40374;49.480;20.016;2023-03-01T11:27:44;95652.31;;;12.96;39.15
54465;BME280;40374;49.480;20.016;2023-03-01T11:33:01;95642.28;;;13.52;39.43
54465;BME280;40374;49.480;20.016;2023-03-01T11:35:31;95637.28;;;13.69;39.25
54465;BME280;40374;49.480;20.016;2023-03-01T11:40:42;95637.81;;;14.30;38.74
54465;BME280;40374;49.480;20.016;2023-03-01T11:43:26;95636.28;;;14.72;37.78
54465;BME280;40374;49.480;20.016;2023-03-01T12:08:23;95610.94;;;14.38;37.64
54465;BME280;40374;49.480;20.016;2023-03-01T12:13:56;95605.38;;;15.35;37.45
